sensor_id;sensor_type;location;lat;lon;timestamp;pressure;altitude;pressure_sealevel;temperature;humidity
32638;BME280;19045;52.268;10.506;2023-02-20T00:00:21;101307.66;;;5.13;100.00
32638;BME280;19045;52.268;10.506;2023-02-20T00:02:48;101308.84;;;5.11;100.00
32638;BME280;19045;52.268;10.506;2023-02-20T00:05:16;101305.56;;;5.09;100.00
32638;BME280;19045;52.268;10.506;2023-02-20T00:07:43;101301.69;;;5.11;100.00
32638;BME280;19045;52.268;10.506;2023-02-20T00:10:10;101295.94;;;5.14;100.00
32638;BME280;19045;52.268;10.506;2023-02-20T00:12:37;101293.94;;;5.16;100.00
32638;BME280;19045;52.268;10.506;2023-02-20T00:15:06;101293.53;;;5.19;100.00
32638;BME280;19045;52.268;10.506;2023-02-20T00:17:32;101295.16;;;5.20;100.00
32638;BME280;19045;52.268;10.506;2023-02-20T00:19:59;101293.94;;;5.23;100.00
32638;BME280;19045;52.268;10.506;2023-02-20T00:22:26;101284.91;;;5.24;100.00
32638;BME280;19045;52.268;10.506;2023-02-20T00:24:53;101289.66;;;5.29;100.00
32638;BME280;19045;52.268;10.506;2023-02-20T00:27:19;101285.75;;;5.31;100.00
32638;BME280;19045;52.268;10.506;2023-02-20T00:29:46;101286.97;;;5.29;100.00
32638;BME280;19045;52.268;10.506;2023-02-20T00:32:14;101287.59;;;5.31;100.00
32638;BME280;19045;52.268;10.506;2023-02-20T00:34:43;101278.81;;;5.30;100.00
32638;BME280;19045;52.268;10.506;2023-02-20T00:37:09;101273.06;;;5.27;100.00
32638;BME280;19045;52.268;10.506;2023-02-20T00:39:36;101280.03;;;5.34;100.00
32638;BME280;19045;52.268;10.506;2023-02-20T00:42:03;101281.25;;;5.38;100.00
32638;BME280;19045;52.268;10.506;2023-02-20T00:44:29;101276.53;;;5.40;100.00
32638;BME280;19045;52.268;10.506;2023-02-20T00:46:56;101277.78;;;5.38;100.00
32638;BME280;19045;52.268;10.506;2023-02-20T00:49:24;101263.44;;;5.39;100.00
32638;BME280;19045;52.268;10.506;2023-02-20T00:51:50;101257.50;;;5.37;100.00
32638;BME280;19045;52.268;10.506;2023-02-20T00:54:17;101256.28;;;5.39;100.00
32638;BME280;19045;52.268;10.506;2023-02-20T00:56:44;101255.03;;;5.42;100.00
32638;BME280;19045;52.268;10.506;2023-02-20T00:59:11;101256.28;;;5.46;100.00
32638;BME280;19045;52.268;10.506;2023-02-20T01:01:38;101249.72;;;5.48;100.00
32638;BME280;19045;52.268;10.506;2023-02-20T01:04:04;101250.53;;;5.49;100.00
32638;BME280;19045;52.268;10.506;2023-02-20T01:06:32;101248.50;;;5.51;100.00
32638;BME280;19045;52.268;10.506;2023-02-20T01:08:59;101243.16;;;5.51;100.00
32638;BME280;19045;52.268;10.506;2023-02-20T01:11:25;101239.06;;;5.55;100.00
32638;BME280;19045;52.268;10.506;2023-02-20T01:13:52;101231.91;;;5.55;100.00
32638;BME280;19045;52.268;10.506;2023-02-20T01:16:18;101230.47;;;5.59;100.00
32638;BME280;19045;52.268;10.506;2023-02-20T01:18:48;101240.72;;;5.56;100.00
32638;BME280;19045;52.268;10.506;2023-02-20T01:21:15;101238.66;;;5.58;100.00
32638;BME280;19045;52.268;10.506;2023-02-20T01:23:43;101239.28;;;5.60;100.00
32638;BME280;19045;52.268;10.506;2023-02-20T01:26:09;101228.41;;;5.61;100.00
32638;BME280;19045;52.268;10.506;2023-02-20T01:28:36;101229.66;;;5.59;100.00
32638;BME280;19045;52.268;10.506;2023-02-20T01:31:03;101232.09;;;5.60;100.00
32638;BME280;19045;52.268;10.506;2023-02-20T01:33:30;101226.34;;;5.63;100.00
32638;BME280;19045;52.268;10.506;2023-02-20T01:35:56;101219.41;;;5.62;100.00
32638;BME280;19045;52.268;10.506;2023-02-20T01:38:23;101201.97;;;5.60;100.00
32638;BME280;19045;52.268;10.506;2023-02-20T01:40:51;101199.31;;;5.60;100.00
32638;BME280;19045;52.268;10.506;2023-02-20T01:43:17;101189.66;;;5.59;100.00
32638;BME280;19045;52.268;10.506;2023-02-20T01:45:44;101198.50;;;5.59;100.00
32638;BME280;19045;52.268;10.506;2023-02-20T01:48:18;101196.44;;;5.61;100.00
32638;BME280;19045;52.268;10.506;2023-02-20T01:50:45;101186.00;;;5.60;100.00
32638;BME280;19045;52.268;10.506;2023-02-20T01:53:14;101163.03;;;5.59;100.00
32638;BME280;19045;52.268;10.506;2023-02-20T01:55:44;101179.41;;;5.62;100.00
32638;BME280;19045;52.268;10.506;2023-02-20T01:58:18;101159.72;;;5.63;100.00
32638;BME280;19045;52.268;10.506;2023-02-20T02:00:46;101158.69;;;5.64;100.00
32638;BME280;19045;52.268;10.506;2023-02-20T02:03:15;101154.41;;;5.70;100.00
32638;BME280;19045;52.268;10.506;2023-02-20T02:05:44;101140.44;;;5.68;100.00
32638;BME280;19045;52.268;10.506;2023-02-20T02:08:13;101140.44;;;5.68;100.00
32638;BME280;19045;52.268;10.506;2023-02-20T02:10:47;101143.75;;;5.70;100.00
32638;BME280;19045;52.268;10.506;2023-02-20T02:13:17;101135.34;;;5.73;100.00
32638;BME280;19045;52.268;10.506;2023-02-20T02:15:43;101130.00;;;5.73;100.00
32638;BME280;19045;52.268;10.506;2023-02-20T02:18:36;101130.41;;;5.70;100.00
32638;BME280;19045;52.268;10.506;2023-02-20T02:21:39;101127.13;;;5.68;100.00
32638;BME280;19045;52.268;10.506;2023-02-20T02:24:46;101122.81;;;5.67;100.00
32638;BME280;19045;52.268;10.506;2023-02-20T02:27:53;101113.41;;;5.64;99.67
32638;BME280;19045;52.268;10.506;2023-02-20T02:31:00;101108.28;;;5.63;98.87
32638;BME280;19045;52.268;10.506;2023-02-20T02:33:57;101104.81;;;5.62;98.53
32638;BME280;19045;52.268;10.506;2023-02-20T02:36:37;101106.41;;;5.63;98.12
32638;BME280;19045;52.268;10.506;2023-02-20T02:39:15;101095.97;;;5.62;98.18
32638;BME280;19045;52.268;10.506;2023-02-20T02:41:51;101096.59;;;5.64;98.02
32638;BME280;19045;52.268;10.506;2023-02-20T02:44:23;101091.47;;;5.62;97.49
32638;BME280;19045;52.268;10.506;2023-02-20T02:46:56;101086.97;;;5.63;97.34
32638;BME280;19045;52.268;10.506;2023-02-20T02:49:28;101088.19;;;5.60;97.43
32638;BME280;19045;52.268;10.506;2023-02-20T02:51:58;101073.84;;;5.55;97.29
32638;BME280;19045;52.268;10.506;2023-02-20T02:54:27;101078.34;;;5.54;97.60
32638;BME280;19045;52.268;10.506;2023-02-20T02:57:20;101078.34;;;5.54;97.49
32638;BME280;19045;52.268;10.506;2023-02-20T02:59:51;101068.31;;;5.56;97.56
32638;BME280;19045;52.268;10.506;2023-02-20T03:02:21;101078.75;;;5.58;97.70
32638;BME280;19045;52.268;10.506;2023-02-20T03:04:51;101067.91;;;5.59;97.38
32638;BME280;19045;52.268;10.506;2023-02-20T03:07:19;101068.72;;;5.60;97.63
32638;BME280;19045;52.268;10.506;2023-02-20T03:09:50;101066.84;;;5.60;97.95
32638;BME280;19045;52.268;10.506;2023-02-20T03:12:20;101058.66;;;5.62;97.24
32638;BME280;19045;52.268;10.506;2023-02-20T03:14:54;101063.41;;;5.60;97.54
32638;BME280;19045;52.268;10.506;2023-02-20T03:17:42;101064.81;;;5.62;97.59
32638;BME280;19045;52.268;10.506;2023-02-20T03:20:15;101067.69;;;5.61;97.30
32638;BME280;19045;52.268;10.506;2023-02-20T03:22:45;101069.94;;;5.64;97.15
32638;BME280;19045;52.268;10.506;2023-02-20T03:25:16;101071.78;;;5.63;97.07
32638;BME280;19045;52.268;10.506;2023-02-20T03:27:49;101077.91;;;5.64;96.95
32638;BME280;19045;52.268;10.506;2023-02-20T03:30:21;101071.38;;;5.66;97.16
32638;BME280;19045;52.268;10.506;2023-02-20T03:32:55;101063.97;;;5.68;96.82
32638;BME280;19045;52.268;10.506;2023-02-20T03:35:42;101061.91;;;5.70;96.59
32638;BME280;19045;52.268;10.506;2023-02-20T03:38:36;101065.81;;;5.68;96.50
32638;BME280;19045;52.268;10.506;2023-02-20T03:41:22;101069.50;;;5.73;96.26
32638;BME280;19045;52.268;10.506;2023-02-20T03:44:12;101060.69;;;5.73;96.46
32638;BME280;19045;52.268;10.506;2023-02-20T03:46:41;101052.28;;;5.76;96.44
32638;BME280;19045;52.268;10.506;2023-02-20T03:49:12;101052.69;;;5.80;96.29
32638;BME280;19045;52.268;10.506;2023-02-20T03:51:39;101056.38;;;5.79;96.26
32638;BME280;19045;52.268;10.506;2023-02-20T03:54:06;101043.03;;;5.79;96.47
32638;BME280;19045;52.268;10.506;2023-02-20T03:56:37;101051.44;;;5.82;96.30
32638;BME280;19045;52.268;10.506;2023-02-20T03:59:11;101052.03;;;5.84;96.12
32638;BME280;19045;52.268;10.506;2023-02-20T04:01:41;101031.53;;;5.85;96.21
32638;BME280;19045;52.268;10.506;2023-02-20T04:04:11;101033.22;;;5.86;96.15
32638;BME280;19045;52.268;10.506;2023-02-20T04:06:40;101033.22;;;5.86;96.33
32638;BME280;19045;52.268;10.506;2023-02-20T04:09:11;101017.38;;;5.91;96.05
32638;BME280;19045;52.268;10.506;2023-02-20T04:11:42;101003.84;;;5.92;95.92
32638;BME280;19045;52.268;10.506;2023-02-20T04:14:13;101010.19;;;5.91;96.05
32638;BME280;19045;52.268;10.506;2023-02-20T04:16:46;100991.09;;;5.94;95.52
32638;BME280;19045;52.268;10.506;2023-02-20T04:19:13;100984.97;;;5.94;95.22
32638;BME280;19045;52.268;10.506;2023-02-20T04:21:43;100983.72;;;5.96;95.54
32638;BME280;19045;52.268;10.506;2023-02-20T04:24:13;100978.81;;;5.93;95.44
32638;BME280;19045;52.268;10.506;2023-02-20T04:26:42;100978.00;;;5.93;95.24
32638;BME280;19045;52.268;10.506;2023-02-20T04:29:09;100979.84;;;5.92;95.47
32638;BME280;19045;52.268;10.506;2023-02-20T04:31:37;100972.44;;;5.94;95.43
32638;BME280;19045;52.268;10.506;2023-02-20T04:34:04;100973.28;;;5.95;95.57
32638;BME280;19045;52.268;10.506;2023-02-20T04:36:31;100982.09;;;5.95;95.46
32638;BME280;19045;52.268;10.506;2023-02-20T04:38:57;100988.84;;;5.98;95.80
32638;BME280;19045;52.268;10.506;2023-02-20T04:41:24;100986.16;;;5.98;95.74
32638;BME280;19045;52.268;10.506;2023-02-20T04:43:50;100967.69;;;6.03;95.62
32638;BME280;19045;52.268;10.506;2023-02-20T04:46:39;100957.66;;;5.98;95.67
32638;BME280;19045;52.268;10.506;2023-02-20T04:49:06;100950.69;;;5.97;96.21
32638;BME280;19045;52.268;10.506;2023-02-20T04:51:32;100951.13;;;5.94;96.63
32638;BME280;19045;52.268;10.506;2023-02-20T04:53:59;100958.53;;;5.92;96.70
32638;BME280;19045;52.268;10.506;2023-02-20T04:56:25;100948.28;;;5.89;97.17
32638;BME280;19045;52.268;10.506;2023-02-20T04:58:52;100932.72;;;5.86;96.96
32638;BME280;19045;52.268;10.506;2023-02-20T05:01:19;100927.56;;;5.85;97.49
32638;BME280;19045;52.268;10.506;2023-02-20T05:03:46;100926.56;;;5.86;97.36
32638;BME280;19045;52.268;10.506;2023-02-20T05:06:13;100922.47;;;5.83;96.89
32638;BME280;19045;52.268;10.506;2023-02-20T05:08:40;100916.88;;;5.85;97.33
32638;BME280;19045;52.268;10.506;2023-02-20T05:11:06;100927.97;;;5.88;97.23
32638;BME280;19045;52.268;10.506;2023-02-20T05:13:33;100918.13;;;5.89;97.22
32638;BME280;19045;52.268;10.506;2023-02-20T05:15:59;100921.78;;;5.94;97.03
32638;BME280;19045;52.268;10.506;2023-02-20T05:18:27;100917.47;;;5.93;97.09
32638;BME280;19045;52.268;10.506;2023-02-20T05:20:56;100934.28;;;5.94;97.12
32638;BME280;19045;52.268;10.506;2023-02-20T05:23:40;100939.03;;;5.92;97.46
32638;BME280;19045;52.268;10.506;2023-02-20T05:26:08;100940.06;;;5.91;97.67
32638;BME280;19045;52.268;10.506;2023-02-20T05:28:34;100939.25;;;5.84;97.74
32638;BME280;19045;52.268;10.506;2023-02-20T05:31:01;100932.72;;;5.86;98.14
32638;BME280;19045;52.268;10.506;2023-02-20T05:33:28;100928.38;;;5.85;98.36
32638;BME280;19045;52.268;10.506;2023-02-20T05:35:56;100927.78;;;5.83;98.61
32638;BME280;19045;52.268;10.506;2023-02-20T05:38:22;100922.84;;;5.80;98.79
32638;BME280;19045;52.268;10.506;2023-02-20T05:40:49;100910.97;;;5.83;98.27
32638;BME280;19045;52.268;10.506;2023-02-20T05:43:16;100902.97;;;5.83;98.79
32638;BME280;19045;52.268;10.506;2023-02-20T05:45:43;100884.91;;;5.85;98.34
32638;BME280;19045;52.268;10.506;2023-02-20T05:48:10;100883.06;;;5.85;98.33
32638;BME280;19045;52.268;10.506;2023-02-20T05:50:37;100871.16;;;5.88;98.09
32638;BME280;19045;52.268;10.506;2023-02-20T05:53:05;100869.13;;;5.90;98.34
32638;BME280;19045;52.268;10.506;2023-02-20T05:55:32;100858.22;;;5.91;97.41
32638;BME280;19045;52.268;10.506;2023-02-20T05:57:58;100863.75;;;5.96;97.58
32638;BME280;19045;52.268;10.506;2023-02-20T06:00:25;100859.00;;;5.98;97.32
32638;BME280;19045;52.268;10.506;2023-02-20T06:02:52;100851.81;;;5.99;97.16
32638;BME280;19045;52.268;10.506;2023-02-20T06:05:18;100853.81;;;6.03;96.80
32638;BME280;19045;52.268;10.506;2023-02-20T06:07:45;100860.78;;;6.04;96.73
32638;BME280;19045;52.268;10.506;2023-02-20T06:10:17;100853.63;;;6.05;97.00
32638;BME280;19045;52.268;10.506;2023-02-20T06:12:44;100846.38;;;6.12;96.62
32638;BME280;19045;52.268;10.506;2023-02-20T06:15:11;100852.75;;;6.11;96.25
32638;BME280;19045;52.268;10.506;2023-02-20T06:17:37;100841.88;;;6.12;96.38
32638;BME280;19045;52.268;10.506;2023-02-20T06:20:05;100849.25;;;6.10;96.19
32638;BME280;19045;52.268;10.506;2023-02-20T06:22:31;100845.19;;;6.08;96.83
32638;BME280;19045;52.268;10.506;2023-02-20T06:24:58;100839.66;;;6.09;97.29
32638;BME280;19045;52.268;10.506;2023-02-20T06:27:26;100835.34;;;6.08;96.92
32638;BME280;19045;52.268;10.506;2023-02-20T06:29:53;100841.53;;;6.02;97.39
32638;BME280;19045;52.268;10.506;2023-02-20T06:32:19;100841.38;;;6.22;100.00
32638;BME280;19045;52.268;10.506;2023-02-20T06:34:46;100840.56;;;6.21;97.50
32638;BME280;19045;52.268;10.506;2023-02-20T06:37:13;100848.44;;;6.10;97.29
32638;BME280;19045;52.268;10.506;2023-02-20T06:39:39;100837.22;;;6.01;97.41
32638;BME280;19045;52.268;10.506;2023-02-20T06:42:07;100834.13;;;6.04;97.54
32638;BME280;19045;52.268;10.506;2023-02-20T06:44:35;100830.88;;;6.02;97.69
32638;BME280;19045;52.268;10.506;2023-02-20T06:47:01;100847.91;;;6.01;98.03
32638;BME280;19045;52.268;10.506;2023-02-20T06:49:33;100842.38;;;6.03;97.90
32638;BME280;19045;52.268;10.506;2023-02-20T06:51:59;100838.88;;;6.02;97.80
32638;BME280;19045;52.268;10.506;2023-02-20T06:54:26;100838.50;;;5.99;97.86
32638;BME280;19045;52.268;10.506;2023-02-20T06:56:52;100837.41;;;6.06;98.31
32638;BME280;19045;52.268;10.506;2023-02-20T06:59:22;100840.44;;;6.10;97.73
32638;BME280;19045;52.268;10.506;2023-02-20T07:01:50;100845.13;;;6.14;97.57
32638;BME280;19045;52.268;10.506;2023-02-20T07:04:18;100842.03;;;6.17;97.23
32638;BME280;19045;52.268;10.506;2023-02-20T07:06:45;100833.59;;;6.20;97.11
32638;BME280;19045;52.268;10.506;2023-02-20T07:09:12;100835.38;;;6.27;96.37
32638;BME280;19045;52.268;10.506;2023-02-20T07:11:39;100836.38;;;6.32;96.29
32638;BME280;19045;52.268;10.506;2023-02-20T07:14:05;100835.09;;;6.35;95.92
32638;BME280;19045;52.268;10.506;2023-02-20T07:16:32;100819.84;;;6.42;95.63
32638;BME280;19045;52.268;10.506;2023-02-20T07:19:00;100821.50;;;6.43;95.85
32638;BME280;19045;52.268;10.506;2023-02-20T07:21:27;100831.34;;;6.42;95.67
32638;BME280;19045;52.268;10.506;2023-02-20T07:23:53;100814.91;;;6.45;95.18
32638;BME280;19045;52.268;10.506;2023-02-20T07:26:21;100825.13;;;6.48;94.97
32638;BME280;19045;52.268;10.506;2023-02-20T07:28:48;100823.03;;;6.50;94.96
32638;BME280;19045;52.268;10.506;2023-02-20T07:31:15;100832.03;;;6.56;94.84
32638;BME280;19045;52.268;10.506;2023-02-20T07:33:41;100831.38;;;6.60;94.53
32638;BME280;19045;52.268;10.506;2023-02-20T07:36:10;100835.66;;;6.61;94.13
32638;BME280;19045;52.268;10.506;2023-02-20T07:38:37;100836.50;;;6.62;94.43
32638;BME280;19045;52.268;10.506;2023-02-20T07:41:04;100841.59;;;6.63;94.00
32638;BME280;19045;52.268;10.506;2023-02-20T07:43:31;100837.91;;;6.64;93.57
32638;BME280;19045;52.268;10.506;2023-02-20T07:45:58;100831.66;;;6.70;93.32
32638;BME280;19045;52.268;10.506;2023-02-20T07:48:24;100825.22;;;6.78;93.15
32638;BME280;19045;52.268;10.506;2023-02-20T07:50:51;100821.09;;;6.82;92.51
32638;BME280;19045;52.268;10.506;2023-02-20T07:53:19;100810.09;;;6.90;92.33
32638;BME280;19045;52.268;10.506;2023-02-20T07:55:46;100808.59;;;6.94;91.90
32638;BME280;19045;52.268;10.506;2023-02-20T07:58:13;100807.72;;;7.00;92.23
32638;BME280;19045;52.268;10.506;2023-02-20T08:00:39;100797.31;;;7.10;91.37
32638;BME280;19045;52.268;10.506;2023-02-20T08:03:06;100793.97;;;7.15;90.14
32638;BME280;19045;52.268;10.506;2023-02-20T08:05:32;100802.03;;;7.26;89.45
32638;BME280;19045;52.268;10.506;2023-02-20T08:07:59;100786.63;;;7.40;88.59
32638;BME280;19045;52.268;10.506;2023-02-20T08:10:28;100786.31;;;7.48;88.00
32638;BME280;19045;52.268;10.506;2023-02-20T08:12:55;100789.94;;;7.54;87.00
32638;BME280;19045;52.268;10.506;2023-02-20T08:15:22;100787.41;;;7.59;86.67
32638;BME280;19045;52.268;10.506;2023-02-20T08:17:49;100767.41;;;7.61;86.11
32638;BME280;19045;52.268;10.506;2023-02-20T08:20:17;100774.72;;;7.66;86.14
32638;BME280;19045;52.268;10.506;2023-02-20T08:22:45;100764.38;;;7.69;85.04
32638;BME280;19045;52.268;10.506;2023-02-20T08:25:12;100768.50;;;7.84;85.23
32638;BME280;19045;52.268;10.506;2023-02-20T08:27:42;100764.06;;;7.89;84.42
32638;BME280;19045;52.268;10.506;2023-02-20T08:30:11;100763.97;;;7.96;84.65
32638;BME280;19045;52.268;10.506;2023-02-20T08:32:37;100757.69;;;7.90;84.05
32638;BME280;19045;52.268;10.506;2023-02-20T08:35:05;100762.09;;;7.96;83.67
32638;BME280;19045;52.268;10.506;2023-02-20T08:37:31;100767.81;;;7.88;84.21
32638;BME280;19045;52.268;10.506;2023-02-20T08:39:58;100745.00;;;7.86;83.93
32638;BME280;19045;52.268;10.506;2023-02-20T08:42:24;100748.38;;;7.93;83.53
32638;BME280;19045;52.268;10.506;2023-02-20T08:44:52;100734.41;;;8.02;83.61
32638;BME280;19045;52.268;10.506;2023-02-20T08:47:19;100730.84;;;8.08;82.79
32638;BME280;19045;52.268;10.506;2023-02-20T08:49:47;100738.88;;;8.32;82.68
32638;BME280;19045;52.268;10.506;2023-02-20T08:52:14;100742.06;;;8.68;80.14
32638;BME280;19045;52.268;10.506;2023-02-20T08:54:43;100733.44;;;8.78;79.57
32638;BME280;19045;52.268;10.506;2023-02-20T08:57:11;100735.88;;;9.08;77.97
32638;BME280;19045;52.268;10.506;2023-02-20T08:59:37;100737.00;;;9.12;77.60
32638;BME280;19045;52.268;10.506;2023-02-20T09:02:06;100740.50;;;9.41;76.51
32638;BME280;19045;52.268;10.506;2023-02-20T09:04:32;100739.09;;;9.38;76.77
32638;BME280;19045;52.268;10.506;2023-02-20T09:06:59;100738.34;;;9.26;76.90
32638;BME280;19045;52.268;10.506;2023-02-20T09:09:25;100744.25;;;9.56;75.77
32638;BME280;19045;52.268;10.506;2023-02-20T09:11:54;100740.25;;;9.42;76.53
32638;BME280;19045;52.268;10.506;2023-02-20T09:14:21;100741.41;;;9.63;75.15
32638;BME280;19045;52.268;10.506;2023-02-20T09:16:50;100720.53;;;9.65;75.09
32638;BME280;19045;52.268;10.506;2023-02-20T09:19:18;100732.50;;;9.74;75.46
32638;BME280;19045;52.268;10.506;2023-02-20T09:21:46;100713.88;;;9.84;73.94
32638;BME280;19045;52.268;10.506;2023-02-20T09:24:13;100733.50;;;10.40;71.99
32638;BME280;19045;52.268;10.506;2023-02-20T09:26:39;100737.56;;;10.42;70.89
32638;BME280;19045;52.268;10.506;2023-02-20T09:29:06;100739.81;;;10.72;69.65
32638;BME280;19045;52.268;10.506;2023-02-20T09:31:33;100728.56;;;9.98;73.65
32638;BME280;19045;52.268;10.506;2023-02-20T09:33:59;100726.63;;;9.94;73.95
32638;BME280;19045;52.268;10.506;2023-02-20T09:36:27;100718.63;;;9.99;74.91
32638;BME280;19045;52.268;10.506;2023-02-20T09:38:54;100709.13;;;9.74;75.92
32638;BME280;19045;52.268;10.506;2023-02-20T09:41:26;100718.59;;;9.77;76.77
32638;BME280;19045;52.268;10.506;2023-02-20T09:44:00;100700.72;;;10.04;75.88
32638;BME280;19045;52.268;10.506;2023-02-20T09:46:30;100701.09;;;9.74;77.15
32638;BME280;19045;52.268;10.506;2023-02-20T09:49:02;100719.25;;;9.84;77.38
32638;BME280;19045;52.268;10.506;2023-02-20T09:51:34;100709.75;;;9.31;79.97
32638;BME280;19045;52.268;10.506;2023-02-20T09:54:05;100698.81;;;8.88;82.55
32638;BME280;19045;52.268;10.506;2023-02-20T09:56:34;100688.66;;;8.90;83.04
32638;BME280;19045;52.268;10.506;2023-02-20T09:59:05;100696.16;;;8.76;83.77
32638;BME280;19045;52.268;10.506;2023-02-20T10:01:39;100704.25;;;8.65;84.56
32638;BME280;19045;52.268;10.506;2023-02-20T10:04:10;100709.97;;;8.45;86.00
32638;BME280;19045;52.268;10.506;2023-02-20T10:06:40;100696.84;;;8.44;86.62
32638;BME280;19045;52.268;10.506;2023-02-20T10:09:10;100712.44;;;8.47;87.59
32638;BME280;19045;52.268;10.506;2023-02-20T10:11:47;100712.91;;;8.44;87.19
32638;BME280;19045;52.268;10.506;2023-02-20T10:14:33;100704.75;;;8.39;88.35
32638;BME280;19045;52.268;10.506;2023-02-20T10:17:13;100703.50;;;8.29;89.63
32638;BME280;19045;52.268;10.506;2023-02-20T10:19:49;100696.97;;;8.37;89.59
32638;BME280;19045;52.268;10.506;2023-02-20T10:22:21;100689.03;;;8.42;89.81
32638;BME280;19045;52.268;10.506;2023-02-20T10:24:58;100691.06;;;8.35;89.67
32638;BME280;19045;52.268;10.506;2023-02-20T10:27:34;100691.38;;;8.27;90.67
32638;BME280;19045;52.268;10.506;2023-02-20T10:30:09;100688.03;;;8.32;90.87
32638;BME280;19045;52.268;10.506;2023-02-20T10:32:42;100686.25;;;8.25;91.13
32638;BME280;19045;52.268;10.506;2023-02-20T10:35:12;100689.28;;;8.17;92.58
32638;BME280;19045;52.268;10.506;2023-02-20T10:37:44;100694.03;;;8.15;93.19
32638;BME280;19045;52.268;10.506;2023-02-20T10:40:19;100695.81;;;8.21;92.93
32638;BME280;19045;52.268;10.506;2023-02-20T10:42:52;100674.50;;;8.26;92.90
32638;BME280;19045;52.268;10.506;2023-02-20T10:45:25;100653.56;;;8.23;92.71
32638;BME280;19045;52.268;10.506;2023-02-20T10:48:04;100672.44;;;8.28;93.32
32638;BME280;19045;52.268;10.506;2023-02-20T10:50:35;100662.75;;;8.27;92.98
32638;BME280;19045;52.268;10.506;2023-02-20T10:53:14;100682.06;;;8.29;93.41
32638;BME280;19045;52.268;10.506;2023-02-20T10:55:47;100684.28;;;8.44;93.10
32638;BME280;19045;52.268;10.506;2023-02-20T10:58:20;100691.47;;;8.44;93.19
32638;BME280;19045;52.268;10.506;2023-02-20T11:00:51;100687.16;;;8.43;93.00
32638;BME280;19045;52.268;10.506;2023-02-20T11:03:22;100681.59;;;8.21;93.61
32638;BME280;19045;52.268;10.506;2023-02-20T11:05:52;100697.66;;;8.21;94.41
32638;BME280;19045;52.268;10.506;2023-02-20T11:08:21;100698.47;;;8.21;94.24
32638;BME280;19045;52.268;10.506;2023-02-20T11:10:49;100675.91;;;8.17;94.43
32638;BME280;19045;52.268;10.506;2023-02-20T11:13:21;100677.88;;;8.10;95.65
32638;BME280;19045;52.268;10.506;2023-02-20T11:15:54;100682.78;;;8.13;95.44
32638;BME280;19045;52.268;10.506;2023-02-20T11:18:24;100690.31;;;8.16;95.81
32638;BME280;19045;52.268;10.506;2023-02-20T11:20:53;100666.97;;;8.12;95.94
32638;BME280;19045;52.268;10.506;2023-02-20T11:23:37;100683.94;;;8.06;96.56
32638;BME280;19045;52.268;10.506;2023-02-20T11:26:31;100679.06;;;8.14;96.85
32638;BME280;19045;52.268;10.506;2023-02-20T11:29:02;100669.66;;;8.12;97.10
32638;BME280;19045;52.268;10.506;2023-02-20T11:31:31;100663.25;;;8.01;97.88
32638;BME280;19045;52.268;10.506;2023-02-20T11:34:00;100660.44;;;8.08;97.45
32638;BME280;19045;52.268;10.506;2023-02-20T11:36:32;100672.19;;;8.07;97.93
32638;BME280;19045;52.268;10.506;2023-02-20T11:39:01;100672.97;;;8.19;97.54
32638;BME280;19045;52.268;10.506;2023-02-20T11:41:34;100665.91;;;8.13;98.17
32638;BME280;19045;52.268;10.506;2023-02-20T11:44:17;100644.06;;;8.04;98.92
32638;BME280;19045;52.268;10.506;2023-02-20T11:46:44;100668.00;;;7.99;98.42
32638;BME280;19045;52.268;10.506;2023-02-20T11:49:22;100666.75;;;8.02;99.41
32638;BME280;19045;52.268;10.506;2023-02-20T11:51:49;100646.72;;;8.04;98.98
32638;BME280;19045;52.268;10.506;2023-02-20T11:54:20;100654.88;;;7.98;98.96
32638;BME280;19045;52.268;10.506;2023-02-20T11:56:53;100651.25;;;7.92;100.00
32638;BME280;19045;52.268;10.506;2023-02-20T11:59:31;100636.75;;;7.88;99.73
32638;BME280;19045;52.268;10.506;2023-02-20T12:02:12;100645.34;;;7.90;99.91
32638;BME280;19045;52.268;10.506;2023-02-20T12:05:00;100634.03;;;8.00;99.55
32638;BME280;19045;52.268;10.506;2023-02-20T12:07:29;100646.97;;;7.91;99.94
32638;BME280;19045;52.268;10.506;2023-02-20T12:10:02;100635.81;;;7.94;100.00
32638;BME280;19045;52.268;10.506;2023-02-20T12:12:31;100636.50;;;8.01;99.62
32638;BME280;19045;52.268;10.506;2023-02-20T12:14:58;100615.56;;;7.98;100.00
32638;BME280;19045;52.268;10.506;2023-02-20T12:17:33;100630.69;;;8.04;100.00
32638;BME280;19045;52.268;10.506;2023-02-20T12:20:08;100635.34;;;7.97;99.93
32638;BME280;19045;52.268;10.506;2023-02-20T12:22:42;100637.44;;;7.95;100.00
32638;BME280;19045;52.268;10.506;2023-02-20T12:25:18;100630.34;;;8.01;100.00
32638;BME280;19045;52.268;10.506;2023-02-20T12:28:02;100636.63;;;7.95;99.47
32638;BME280;19045;52.268;10.506;2023-02-20T12:30:40;100650.81;;;7.95;100.00
32638;BME280;19045;52.268;10.506;2023-02-20T12:33:40;100647.69;;;7.98;100.00
32638;BME280;19045;52.268;10.506;2023-02-20T12:36:18;100665.34;;;7.88;100.00
32638;BME280;19045;52.268;10.506;2023-02-20T12:38:48;100669.31;;;7.85;99.91
32638;BME280;19045;52.268;10.506;2023-02-20T12:41:26;100651.97;;;7.64;100.00
32638;BME280;19045;52.268;10.506;2023-02-20T12:44:05;100613.75;;;7.52;100.00
32638;BME280;19045;52.268;10.506;2023-02-20T12:46:45;100622.69;;;7.58;100.00
32638;BME280;19045;52.268;10.506;2023-02-20T12:49:23;100638.84;;;7.63;100.00
32638;BME280;19045;52.268;10.506;2023-02-20T12:52:03;100644.19;;;7.63;100.00
32638;BME280;19045;52.268;10.506;2023-02-20T12:54:38;100652.34;;;7.68;100.00
32638;BME280;19045;52.268;10.506;2023-02-20T12:57:16;100660.25;;;7.74;100.00
32638;BME280;19045;52.268;10.506;2023-02-20T12:59:53;100656.50;;;7.64;100.00
32638;BME280;19045;52.268;10.506;2023-02-20T13:02:26;100663.81;;;7.57;100.00
32638;BME280;19045;52.268;10.506;2023-02-20T13:04:57;100647.53;;;7.47;100.00